Flugplatz Merseburg

Für EDAM sind keine METAR/TAF Berichte vorhanden.
Es werden die Flugwettermeldungen vom Flugplatz Leipzig Halle in 21 km Entfernung angezeigt.

Bericht für EDDP

vom 20.10. um 18:50 UTC

Wind 8 kt aus 120°

Sichtweite 10 km oder mehr

gute Sicht, keine Wolken < 5000 ft, keine CB, keine Wettererscheinungen (CAVOK)

Temperatur 13.0°C

Taupunkt 11.0°C

Luftfeuchtigkeit 88%

Luftdruck 1010 hPa

keine wesentliche Wetteränderung innerhalb den nächsten 2 Stunden zu erwarten

EDDP 201850Z 12008KT CAVOK 13/11 Q1010 NOSIG

Prognose für EDDP

vom 20.10. um 00:00 UTC

Zwischen 00:00 UTC und 00:00 UTC

Wind 7 kt aus 140°

Sichtweite 10 km oder mehr

keine signifikanten Wettererscheinungen

keine Wolken


Am 21.10. zwischen 00:00 und 00:00 UTC übergehend zu

Wind 8 kt aus 240°

Sichtweite 10 km oder mehr

keine signifikanten Wettererscheinungen

keine Wolken

TAF EDDP 201700Z 2018/2118 14007KT CAVOK BECMG 2107/2110 24008KT
Impressum